Time;durP1;ratioP1;P1;durP2;ratioP2;P2;SDS_P1;SDS_P2;PMS_P1;PMS_P2;Temp;Humidity;BMP_temperature;BMP_pressure;BME280_temperature;BME280_humidity;BME280_pressure;Samples;Min_cycle;Max_cycle;Signal;HPM_P1;HPM_P2
2022/04/19 00:01:45;;;;;;;19.30;18.27;;;10.50;31.90;;;;;;5013728;28;20181;-80
2022/04/19 00:04:11;;;;;;;18.03;17.23;;;10.50;31.90;;;;;;5013655;28;20209;-80
2022/04/19 00:06:37;;;;;;;17.47;16.70;;;10.50;31.90;;;;;;5013799;28;20181;-81
2022/04/19 00:09:04;;;;;;;17.83;17.03;;;10.40;31.80;;;;;;5013671;28;20424;-81
2022/04/19 00:11:29;;;;;;;17.53;16.83;;;10.40;32.50;;;;;;5013546;28;20783;-81
2022/04/19 00:13:55;;;;;;;17.50;16.80;;;10.30;32.50;;;;;;5012765;28;20420;-81
2022/04/19 00:16:21;;;;;;;17.57;16.87;;;10.20;32.00;;;;;;5012622;28;20174;-81
2022/04/19 00:18:46;;;;;;;18.13;17.23;;;10.10;32.10;;;;;;5013249;28;20612;-81
2022/04/19 00:21:12;;;;;;;17.53;16.73;;;10.30;31.70;;;;;;5013224;28;20231;-80
2022/04/19 00:23:38;;;;;;;17.90;17.10;;;10.30;31.50;;;;;;5013067;28;20173;-79
2022/04/19 00:26:04;;;;;;;18.10;17.30;;;10.40;31.80;;;;;;5013164;28;20415;-80
2022/04/19 00:28:29;;;;;;;17.57;16.87;;;10.30;32.40;;;;;;5013121;28;20186;-80
2022/04/19 00:30:55;;;;;;;18.13;17.33;;;10.20;32.50;;;;;;5013163;28;20184;-80
2022/04/19 00:33:21;;;;;;;18.97;18.10;;;10.10;32.70;;;;;;5012756;28;20184;-80
2022/04/19 00:35:46;;;;;;;17.90;16.80;;;9.90;32.30;;;;;;5012851;28;20235;-80
2022/04/19 00:38:12;;;;;;;17.97;17.27;;;9.90;32.50;;;;;;5012885;28;20610;-80
2022/04/19 00:40:38;;;;;;;16.97;16.27;;;10.00;31.60;;;;;;5012828;28;20173;-80
2022/04/19 00:43:04;;;;;;;18.40;17.50;;;9.90;33.60;;;;;;5012912;28;20201;-80
2022/04/19 00:45:34;;;;;;;18.27;17.37;;;9.90;32.50;;;;;;5012777;28;20340;-80
2022/04/19 00:48:01;;;;;;;16.83;16.17;;;9.90;32.70;;;;;;5012730;28;20413;-80
2022/04/19 00:50:28;;;;;;;18.10;17.00;;;9.70;32.80;;;;;;5012923;28;20537;-80
2022/04/19 00:52:54;;;;;;;17.07;16.37;;;9.80;33.50;;;;;;5012722;28;20428;-80
2022/04/19 00:55:19;;;;;;;18.97;17.97;;;9.80;33.90;;;;;;5012376;28;20416;-80
2022/04/19 00:57:46;;;;;;;17.60;16.80;;;9.90;33.30;;;;;;5012653;28;20178;-81
2022/04/19 01:00:13;;;;;;;17.83;17.00;;;9.90;33.40;;;;;;5012533;28;20424;-80
2022/04/19 01:02:39;;;;;;;17.97;17.27;;;9.80;33.90;;;;;;5012609;28;20431;-81
2022/04/19 01:05:06;;;;;;;18.23;17.43;;;9.90;33.80;;;;;;5012812;28;20789;-86
2022/04/19 01:07:33;;;;;;;17.97;17.03;;;9.80;34.30;;;;;;5012931;28;20420;-85
2022/04/19 01:10:00;;;;;;;17.83;16.93;;;9.70;34.60;;;;;;5012876;28;20427;-81
2022/04/19 01:15:13;;;;;;;18.00;16.90;;;9.60;34.40;;;;;;5013648;28;20918;-81
2022/04/19 01:17:40;;;;;;;17.77;17.00;;;9.60;33.80;;;;;;5012161;28;20416;-80
2022/04/19 01:20:10;;;;;;;18.23;17.53;;;9.40;34.00;;;;;;5012067;28;20815;-81
2022/04/19 01:22:37;;;;;;;17.00;16.20;;;9.50;33.80;;;;;;5012134;28;20466;-81
2022/04/19 01:25:07;;;;;;;18.07;17.10;;;9.70;33.60;;;;;;5011863;28;20467;-81
2022/04/19 01:27:33;;;;;;;16.97;16.23;;;9.70;33.80;;;;;;5011824;28;21112;-80
2022/04/19 01:30:03;;;;;;;16.93;16.23;;;9.60;34.50;;;;;;5012049;28;20776;-80
2022/04/19 01:32:29;;;;;;;19.03;17.83;;;9.60;34.70;;;;;;5011940;28;20427;-80
2022/04/19 01:35:09;;;;;;;18.77;18.07;;;9.70;34.70;;;;;;5011832;28;20444;-80
2022/04/19 01:37:39;;;;;;;18.63;17.90;;;9.60;35.00;;;;;;5011958;28;20493;-81
2022/04/19 01:40:19;;;;;;;18.50;17.50;;;9.60;35.10;;;;;;5011851;28;20530;-81
2022/04/19 01:42:58;;;;;;;18.23;17.33;;;9.50;35.40;;;;;;5011987;28;20412;-81
2022/04/19 01:45:28;;;;;;;18.83;18.03;;;9.40;35.90;;;;;;5011529;28;20424;-80
2022/04/19 01:47:58;;;;;;;19.63;18.53;;;9.50;35.90;;;;;;5011763;28;20416;-80
2022/04/19 01:50:28;;;;;;;19.20;18.40;;;9.50;35.80;;;;;;5011475;28;20424;-81
2022/04/19 01:52:56;;;;;;;19.97;18.50;;;9.50;35.90;;;;;;5011649;28;20439;-81
2022/04/19 01:55:22;;;;;;;19.60;18.70;;;9.50;36.00;;;;;;5011366;28;20419;-81
2022/04/19 01:57:53;;;;;;;19.80;18.70;;;9.50;36.00;;;;;;5011723;28;20458;-81
2022/04/19 02:00:19;;;;;;;19.30;18.43;;;9.40;36.20;;;;;;5011726;28;20412;-81
2022/04/19 02:02:46;;;;;;;19.73;18.63;;;9.30;36.80;;;;;;5011871;28;20470;-81
2022/04/19 02:05:14;;;;;;;20.00;19.10;;;9.20;37.00;;;;;;5011685;28;20499;-82
2022/04/19 02:07:43;;;;;;;20.13;19.23;;;9.20;37.00;;;;;;5011727;28;20981;-80
2022/04/19 02:10:11;;;;;;;19.93;18.97;;;9.20;36.90;;;;;;5011502;28;20776;-80
2022/04/19 02:12:38;;;;;;;20.87;19.77;;;9.30;37.00;;;;;;5011461;28;20451;-80
2022/04/19 02:15:05;;;;;;;20.53;19.53;;;9.20;37.20;;;;;;5011315;28;20420;-80
2022/04/19 02:17:31;;;;;;;20.97;19.93;;;9.20;37.70;;;;;;5011227;28;20423;-80
2022/04/19 02:19:59;;;;;;;20.03;19.17;;;9.10;37.70;;;;;;5011210;28;20468;-80
2022/04/19 02:22:26;;;;;;;19.37;18.40;;;9.10;37.70;;;;;;5011017;28;20473;-80
2022/04/19 02:24:53;;;;;;;19.93;19.13;;;9.00;38.20;;;;;;5011236;28;20412;-80
2022/04/19 02:27:18;;;;;;;19.60;18.80;;;9.00;38.00;;;;;;5011173;28;20420;-81
2022/04/19 02:29:44;;;;;;;20.80;19.90;;;9.00;38.00;;;;;;5011223;28;20776;-81
2022/04/19 02:32:10;;;;;;;20.50;19.60;;;9.10;37.50;;;;;;5011005;28;20243;-81
2022/04/19 02:34:35;;;;;;;20.37;19.37;;;9.10;37.70;;;;;;5010906;28;20223;-81
2022/04/19 02:37:01;;;;;;;21.07;19.97;;;9.00;38.10;;;;;;5011343;28;20585;-81
2022/04/19 02:39:28;;;;;;;21.07;20.07;;;9.00;38.10;;;;;;5014459;28;20282;-81
2022/04/19 02:41:54;;;;;;;19.47;18.60;;;9.00;38.00;;;;;;5015206;28;20423;-81
2022/04/19 02:44:20;;;;;;;20.40;19.30;;;8.90;38.20;;;;;;5014826;28;20426;-81
2022/04/19 02:46:45;;;;;;;19.20;18.33;;;8.80;37.40;;;;;;5015041;28;20456;-80
2022/04/19 02:49:12;;;;;;;19.03;18.10;;;8.70;37.90;;;;;;5015202;28;20188;-81
2022/04/19 02:51:37;;;;;;;20.20;19.27;;;8.60;38.40;;;;;;5014919;28;20189;-81
2022/04/19 02:54:03;;;;;;;20.00;19.10;;;8.70;38.00;;;;;;5014786;28;20434;-81
2022/04/19 02:56:29;;;;;;;19.70;18.80;;;8.80;37.10;;;;;;5014873;28;20243;-81
2022/04/19 02:58:55;;;;;;;19.27;18.47;;;8.70;37.30;;;;;;5014848;28;20464;-81
2022/04/19 03:01:20;;;;;;;19.23;18.53;;;8.70;36.50;;;;;;5014801;28;20316;-81
2022/04/19 03:03:46;;;;;;;19.23;18.53;;;8.60;37.10;;;;;;5014540;28;20582;-81
2022/04/19 03:06:12;;;;;;;19.90;19.07;;;8.60;36.70;;;;;;5014635;28;20219;-81
2022/04/19 03:08:37;;;;;;;20.27;19.40;;;8.50;36.50;;;;;;5014695;28;20308;-81
2022/04/19 03:11:03;;;;;;;20.03;19.23;;;8.60;36.40;;;;;;5015946;28;20181;-81
2022/04/19 03:13:31;;;;;;;19.37;18.67;;;8.60;36.40;;;;;;5014358;28;20200;-80
2022/04/19 03:15:57;;;;;;;20.80;20.00;;;8.60;36.80;;;;;;5015104;28;20189;-81
2022/04/19 03:18:22;;;;;;;21.43;20.53;;;8.40;36.00;;;;;;5015604;28;21097;-81
2022/04/19 03:20:48;;;;;;;21.43;20.50;;;8.40;37.20;;;;;;5015901;28;20484;-85
2022/04/19 03:28:45;;;;;;;22.10;21.20;;;8.70;37.20;;;;;;5016811;28;20911;-85
2022/04/19 03:31:12;;;;;;;21.70;20.60;;;8.60;38.00;;;;;;5014618;28;20912;-84
2022/04/19 03:33:39;;;;;;;22.73;21.63;;;8.50;37.70;;;;;;5014395;28;20440;-84
2022/04/19 03:36:08;;;;;;;21.60;20.63;;;8.60;37.50;;;;;;5015120;28;20420;-84
2022/04/19 03:38:36;;;;;;;22.07;20.97;;;8.60;37.60;;;;;;5014801;28;20498;-84
2022/04/19 03:41:02;;;;;;;21.80;20.90;;;8.60;37.80;;;;;;5015972;28;20439;-85
2022/04/19 03:43:28;;;;;;;23.50;22.50;;;8.60;38.10;;;;;;5014362;28;20431;-84
2022/04/19 03:45:54;;;;;;;23.20;22.10;;;8.40;38.40;;;;;;5014323;28;20797;-84
2022/04/19 03:48:19;;;;;;;23.17;22.07;;;8.40;38.70;;;;;;5014124;28;20507;-84
2022/04/19 03:50:45;;;;;;;22.93;21.73;;;8.40;38.90;;;;;;5014180;28;20269;-85
2022/04/19 03:53:11;;;;;;;22.50;21.50;;;8.30;39.30;;;;;;5014247;28;20178;-85
2022/04/19 03:55:37;;;;;;;23.90;22.80;;;8.30;39.00;;;;;;5014565;28;20436;-85
2022/04/19 03:58:04;;;;;;;24.07;23.00;;;8.40;38.70;;;;;;5014540;28;20427;-85
2022/04/19 04:00:30;;;;;;;24.30;23.17;;;8.50;38.70;;;;;;5014548;28;20452;-86
2022/04/19 04:02:56;;;;;;;24.30;23.07;;;8.50;38.90;;;;;;5014656;28;20423;-85
2022/04/19 04:05:24;;;;;;;24.10;22.60;;;8.30;39.20;;;;;;5014625;28;20430;-84
2022/04/19 04:07:57;;;;;;;25.23;23.80;;;8.30;40.20;;;;;;5014216;28;20539;-88
2022/04/19 04:10:23;;;;;;;24.17;23.17;;;8.20;40.10;;;;;;5007313;28;20455;-88
2022/04/19 04:12:50;;;;;;;24.17;23.03;;;8.20;40.10;;;;;;5005922;28;20421;-87
2022/04/19 04:15:16;;;;;;;24.73;23.63;;;8.30;39.50;;;;;;5004314;28;20415;-86
2022/04/19 04:17:41;;;;;;;24.40;23.30;;;8.20;40.10;;;;;;5003121;28;20413;-84
2022/04/19 04:20:08;;;;;;;23.73;22.67;;;8.20;40.00;;;;;;5004401;28;20861;-85
2022/04/19 04:22:34;;;;;;;23.37;22.27;;;8.30;40.20;;;;;;5004164;28;20174;-85
2022/04/19 04:24:59;;;;;;;24.47;23.37;;;8.30;39.90;;;;;;4999499;28;20448;-87
2022/04/19 04:27:27;;;;;;;24.33;23.33;;;8.30;40.00;;;;;;4995243;28;20264;-85
2022/04/19 04:29:53;;;;;;;23.93;22.77;;;8.30;39.60;;;;;;4995235;28;20185;-85
2022/04/19 04:32:18;;;;;;;23.47;22.20;;;8.30;40.00;;;;;;4994828;28;20782;-86
2022/04/19 04:34:44;;;;;;;23.30;22.20;;;8.30;39.90;;;;;;4994558;28;20329;-85
2022/04/19 04:37:10;;;;;;;23.60;22.40;;;8.20;40.40;;;;;;5002743;28;20189;-87
2022/04/19 04:39:36;;;;;;;24.17;23.02;;;8.20;40.70;;;;;;4993185;28;20441;-86
2022/04/19 04:42:08;;;;;;;22.87;21.77;;;8.30;40.70;;;;;;5009847;28;20176;-85
2022/04/19 04:44:34;;;;;;;21.70;20.83;;;8.10;41.00;;;;;;5012726;28;20442;-85
2022/04/19 04:49:48;;;;;;;21.63;20.73;;;8.00;40.90;;;;;;5014129;28;20188;-81
2022/04/19 04:52:14;;;;;;;23.77;22.77;;;8.00;40.90;;;;;;5012674;28;20416;-80
2022/04/19 04:54:42;;;;;;;23.00;21.90;;;8.10;40.60;;;;;;5012626;28;20415;-80
2022/04/19 04:57:08;;;;;;;23.60;22.37;;;8.00;40.90;;;;;;5012561;28;20958;-80
2022/04/19 04:59:35;;;;;;;24.07;22.87;;;8.00;40.90;;;;;;5012369;28;20464;-80
2022/04/19 05:02:03;;;;;;;23.30;22.20;;;8.00;40.80;;;;;;5012066;28;20499;-80
2022/04/19 05:04:38;;;;;;;24.90;23.70;;;8.10;40.30;;;;;;5009686;28;20424;-80
2022/04/19 05:07:04;;;;;;;23.50;22.50;;;7.90;40.60;;;;;;5008115;28;20412;-80
2022/04/19 05:09:30;;;;;;;24.00;22.80;;;8.10;40.20;;;;;;5012153;28;20420;-81
2022/04/19 05:11:55;;;;;;;24.17;23.07;;;8.20;39.80;;;;;;5011201;28;20416;-82
2022/04/19 05:14:22;;;;;;;24.50;23.30;;;8.30;39.80;;;;;;5009848;28;20420;-82
2022/04/19 05:16:48;;;;;;;24.63;23.53;;;8.10;41.00;;;;;;5003290;28;20190;-82
2022/04/19 05:19:13;;;;;;;24.17;23.07;;;8.00;40.90;;;;;;5012655;28;20456;-82
2022/04/19 05:21:39;;;;;;;25.67;24.37;;;8.00;40.90;;;;;;5012495;28;20511;-82
2022/04/19 05:24:06;;;;;;;25.77;23.90;;;8.00;40.90;;;;;;5011679;28;20543;-82
2022/04/19 05:26:32;;;;;;;24.77;23.50;;;8.00;40.70;;;;;;5003612;28;20423;-82
2022/04/19 05:28:58;;;;;;;23.63;22.43;;;8.00;40.50;;;;;;5006673;28;20432;-82
2022/04/19 05:31:24;;;;;;;25.00;23.80;;;8.00;40.90;;;;;;5012594;28;21074;-82
2022/04/19 05:33:50;;;;;;;25.03;23.73;;;8.10;39.90;;;;;;5001772;28;20285;-82
2022/04/19 05:36:16;;;;;;;26.97;24.93;;;8.10;41.00;;;;;;4993860;28;20431;-81
2022/04/19 05:38:41;;;;;;;26.77;25.40;;;8.10;40.00;;;;;;5012392;28;20475;-82
2022/04/19 05:41:07;;;;;;;24.70;23.63;;;8.10;39.50;;;;;;5012406;28;20420;-82
2022/04/19 05:43:41;;;;;;;22.47;21.40;;;8.10;40.10;;;;;;4996377;28;20174;-81
2022/04/19 05:46:06;;;;;;;23.07;22.17;;;8.10;39.00;;;;;;4993059;28;20568;-82
2022/04/19 05:48:32;;;;;;;21.70;20.80;;;8.10;39.90;;;;;;5002783;28;20428;-82
2022/04/19 05:50:59;;;;;;;21.80;20.90;;;8.20;40.00;;;;;;5012109;28;20174;-81
2022/04/19 05:53:24;;;;;;;22.43;21.53;;;8.30;39.70;;;;;;5012011;28;20216;-86
2022/04/19 05:55:50;;;;;;;21.47;20.53;;;8.30;39.40;;;;;;5012252;28;20439;-87
2022/04/19 05:58:19;;;;;;;20.53;19.30;;;8.30;39.80;;;;;;5012046;28;20213;-87
2022/04/19 06:00:44;;;;;;;21.17;20.07;;;8.30;38.90;;;;;;5012076;28;20285;-87
2022/04/19 06:05:54;;;;;;;23.57;22.30;;;8.50;39.40;;;;;;5013318;28;20204;-87
2022/04/19 06:08:19;;;;;;;23.17;22.10;;;8.50;38.80;;;;;;5011724;28;20420;-87
2022/04/19 06:10:45;;;;;;;22.50;21.07;;;8.60;38.70;;;;;;5011844;28;20191;-86
2022/04/19 06:13:11;;;;;;;23.57;22.57;;;8.60;38.20;;;;;;5010866;28;20656;-86
2022/04/19 06:15:37;;;;;;;25.23;23.40;;;8.60;38.10;;;;;;5011473;28;20268;-86
2022/04/19 06:18:03;;;;;;;23.23;22.17;;;8.60;37.60;;;;;;5011789;28;20181;-85
2022/04/19 06:20:29;;;;;;;22.60;21.70;;;8.70;36.50;;;;;;5013174;28;20493;-87
2022/04/19 06:22:54;;;;;;;22.50;21.33;;;8.70;36.30;;;;;;5011500;28;20792;-86
2022/04/19 06:25:20;;;;;;;25.07;23.43;;;8.80;37.70;;;;;;5012102;28;20173;-86
2022/04/19 06:27:46;;;;;;;23.20;22.10;;;8.90;38.30;;;;;;5012151;28;20173;-86
2022/04/19 06:30:12;;;;;;;22.67;21.67;;;9.00;38.50;;;;;;5002829;28;20182;-87
2022/04/19 06:32:38;;;;;;;23.93;22.47;;;9.00;36.30;;;;;;5005983;28;20200;-86
2022/04/19 06:35:04;;;;;;;23.37;22.17;;;9.00;36.70;;;;;;5011270;28;20498;-86
2022/04/19 06:37:30;;;;;;;25.30;23.73;;;9.10;36.80;;;;;;5011493;28;20213;-86
2022/04/19 06:40:06;;;;;;;23.63;22.60;;;9.20;37.10;;;;;;5011368;28;20898;-86
2022/04/19 06:42:32;;;;;;;24.60;23.30;;;9.30;37.70;;;;;;5011447;28;20181;-87
2022/04/19 06:44:58;;;;;;;25.87;23.47;;;9.50;36.30;;;;;;5011105;28;20471;-89
2022/04/19 06:47:26;;;;;;;25.43;23.70;;;9.60;35.40;;;;;;5011418;28;20939;-86
2022/04/19 06:49:58;;;;;;;23.00;21.83;;;9.70;35.70;;;;;;5011157;28;20679;-86
2022/04/19 06:52:24;;;;;;;24.00;22.60;;;9.80;35.20;;;;;;5011233;28;20452;-83
2022/04/19 06:54:50;;;;;;;24.27;23.07;;;9.80;34.40;;;;;;5011187;28;20511;-82
2022/04/19 06:57:16;;;;;;;25.00;23.60;;;9.90;34.00;;;;;;5010826;28;20547;-83
2022/04/19 06:59:41;;;;;;;24.40;23.30;;;10.00;33.10;;;;;;5010826;28;20691;-83
2022/04/19 07:02:07;;;;;;;25.10;23.90;;;10.00;31.60;;;;;;5010866;28;20181;-83
2022/04/19 07:04:33;;;;;;;24.50;23.30;;;10.10;31.60;;;;;;5010686;28;20183;-82
2022/04/19 07:06:59;;;;;;;22.60;21.50;;;10.20;31.70;;;;;;5010819;28;20181;-83
2022/04/19 07:09:25;;;;;;;24.37;23.17;;;10.20;31.70;;;;;;5010853;28;20562;-83
2022/04/19 07:11:51;;;;;;;24.53;23.27;;;10.30;30.80;;;;;;5010796;28;20885;-83
2022/04/19 07:14:17;;;;;;;25.10;23.90;;;10.30;31.70;;;;;;5010674;28;20478;-82
2022/04/19 07:16:42;;;;;;;24.37;22.73;;;10.40;31.10;;;;;;5010668;28;20275;-82
2022/04/19 07:19:08;;;;;;;23.50;22.40;;;10.40;31.80;;;;;;5010823;28;20300;-81
2022/04/19 07:27:02;;;;;;;25.80;24.60;;;10.60;32.00;;;;;;5012763;28;20554;-83
2022/04/19 07:29:27;;;;;;;23.83;22.70;;;10.70;32.20;;;;;;5014272;28;20902;-83
2022/04/19 07:31:53;;;;;;;24.00;22.60;;;10.80;30.90;;;;;;5014840;28;20177;-83
2022/04/19 07:34:19;;;;;;;22.90;21.53;;;10.80;31.10;;;;;;5014663;28;20534;-87
2022/04/19 07:36:45;;;;;;;25.33;24.23;;;10.90;30.60;;;;;;5014592;28;20641;-84
2022/04/19 07:39:13;;;;;;;23.40;22.30;;;10.90;29.90;;;;;;5014297;28;20224;-84
2022/04/19 07:41:39;;;;;;;23.40;21.70;;;11.00;30.60;;;;;;5014793;28;20440;-86
2022/04/19 07:44:08;;;;;;;23.50;22.40;;;11.00;30.80;;;;;;5013867;28;20482;-87
2022/04/19 07:46:35;;;;;;;24.33;22.83;;;11.10;30.90;;;;;;5013834;28;20420;-85
2022/04/19 07:49:00;;;;;;;26.20;24.50;;;11.10;30.80;;;;;;5013879;28;20507;-85
2022/04/19 07:51:26;;;;;;;25.67;24.37;;;11.20;30.40;;;;;;5012223;28;20854;-85
2022/04/19 07:53:52;;;;;;;23.60;22.30;;;11.30;29.90;;;;;;5013243;28;20184;-85
2022/04/19 07:56:19;;;;;;;23.23;22.07;;;11.40;30.00;;;;;;5013770;28;20420;-84
2022/04/19 07:58:47;;;;;;;22.67;21.57;;;11.50;29.80;;;;;;5013692;28;20463;-85
2022/04/19 08:01:18;;;;;;;22.27;21.07;;;11.50;29.20;;;;;;5008714;28;20445;-84
2022/04/19 08:03:43;;;;;;;21.00;20.00;;;11.60;28.80;;;;;;5014079;28;20419;-85
2022/04/19 08:06:10;;;;;;;22.10;20.63;;;11.70;28.80;;;;;;5013907;28;20420;-85
2022/04/19 08:08:42;;;;;;;22.50;21.40;;;11.70;28.40;;;;;;5014614;28;20181;-85
2022/04/19 08:11:08;;;;;;;22.43;21.40;;;11.80;28.60;;;;;;5014988;28;20429;-85
2022/04/19 08:13:33;;;;;;;22.97;21.70;;;11.90;28.50;;;;;;5014874;28;20416;-79
2022/04/19 08:15:59;;;;;;;23.73;22.43;;;12.00;28.30;;;;;;5014966;28;20180;-80
2022/04/19 08:18:25;;;;;;;23.40;21.90;;;12.10;28.70;;;;;;5014821;28;20236;-85
2022/04/19 08:20:51;;;;;;;22.87;21.57;;;12.20;28.50;;;;;;5008928;28;20189;-80
2022/04/19 08:23:17;;;;;;;26.50;24.50;;;12.20;29.30;;;;;;5008322;28;20282;-80
2022/04/19 08:25:43;;;;;;;24.37;23.07;;;12.20;29.10;;;;;;5013488;28;20462;-80
2022/04/19 08:28:09;;;;;;;25.67;23.83;;;12.30;28.80;;;;;;5013592;28;20511;-80
2022/04/19 08:30:35;;;;;;;24.37;23.00;;;12.40;28.90;;;;;;5013190;28;20504;-78
2022/04/19 08:33:01;;;;;;;24.07;22.97;;;12.50;28.70;;;;;;5012926;28;20460;-79
2022/04/19 08:35:27;;;;;;;25.23;23.73;;;12.60;27.70;;;;;;5012078;28;20428;-79
2022/04/19 08:37:53;;;;;;;44.47;26.07;;;12.70;28.00;;;;;;5014479;28;20521;-79
2022/04/19 08:40:19;;;;;;;24.10;22.47;;;12.80;28.00;;;;;;5012981;28;20831;-79
2022/04/19 08:42:46;;;;;;;24.50;22.70;;;12.80;28.80;;;;;;5012664;28;20435;-79
2022/04/19 08:45:15;;;;;;;24.93;23.33;;;12.90;27.80;;;;;;5012988;28;20211;-81
2022/04/19 08:47:45;;;;;;;30.50;27.83;;;13.00;27.00;;;;;;5012836;28;20554;-80
2022/04/19 08:50:17;;;;;;;23.83;22.60;;;13.10;27.10;;;;;;5012620;28;20876;-80
2022/04/19 08:52:43;;;;;;;24.80;23.37;;;13.20;26.20;;;;;;5012991;28;20499;-80
2022/04/19 08:57:54;;;;;;;25.30;23.70;;;13.30;25.40;;;;;;5014476;28;20786;-80
2022/04/19 09:00:22;;;;;;;26.50;24.77;;;13.40;25.50;;;;;;5012272;28;20959;-80
2022/04/19 09:02:52;;;;;;;35.73;25.60;;;13.40;25.80;;;;;;5012872;28;20904;-80
2022/04/19 09:05:23;;;;;;;23.67;22.43;;;13.50;25.60;;;;;;5012587;28;20416;-80
2022/04/19 09:07:51;;;;;;;30.20;27.80;;;13.50;24.80;;;;;;5012829;28;20417;-80
2022/04/19 09:10:28;;;;;;;24.00;22.70;;;13.60;24.80;;;;;;5012519;28;20432;-80
2022/04/19 09:13:05;;;;;;;23.10;21.90;;;13.80;23.60;;;;;;5012763;28;20420;-80
2022/04/19 09:16:02;;;;;;;23.90;22.23;;;13.80;24.30;;;;;;5012510;28;20453;-80
2022/04/19 09:18:32;;;;;;;23.20;21.77;;;13.90;22.40;;;;;;5011048;28;20525;-80
2022/04/19 09:21:00;;;;;;;23.30;21.40;;;13.90;22.10;;;;;;5012285;28;20774;-80
2022/04/19 09:23:29;;;;;;;20.03;19.10;;;14.00;21.10;;;;;;5012358;28;20432;-80
2022/04/19 09:25:59;;;;;;;20.80;19.77;;;14.00;20.80;;;;;;5012643;28;20419;-80
2022/04/19 09:28:26;;;;;;;21.77;20.87;;;14.20;19.90;;;;;;5012082;28;20464;-79
2022/04/19 09:30:56;;;;;;;25.13;23.33;;;14.10;20.80;;;;;;5013557;28;20423;-79
2022/04/19 09:33:23;;;;;;;21.47;20.63;;;14.20;21.30;;;;;;5012082;28;20417;-80
2022/04/19 09:36:00;;;;;;;22.10;20.77;;;14.30;20.20;;;;;;5012279;28;20431;-79
2022/04/19 09:38:37;;;;;;;21.70;20.80;;;14.30;20.20;;;;;;5011815;28;20550;-80
2022/04/19 09:41:07;;;;;;;20.77;19.93;;;14.30;19.60;;;;;;5011608;28;20543;-79
2022/04/19 09:43:33;;;;;;;21.37;20.27;;;14.40;18.10;;;;;;5011311;28;20413;-80
2022/04/19 09:46:03;;;;;;;22.17;21.17;;;14.50;18.40;;;;;;5011266;28;20416;-80
2022/04/19 09:48:45;;;;;;;20.70;19.80;;;14.50;18.00;;;;;;5011368;28;20431;-80
2022/04/19 09:51:12;;;;;;;19.87;19.17;;;14.60;17.10;;;;;;5011062;28;20453;-79
2022/04/19 09:53:46;;;;;;;21.30;20.00;;;14.60;17.40;;;;;;5010021;28;20425;-80
2022/04/19 09:56:14;;;;;;;22.17;21.00;;;14.70;15.70;;;;;;5005511;28;20511;-79
2022/04/19 09:58:44;;;;;;;19.70;18.90;;;14.70;16.90;;;;;;5001124;28;20495;-80
2022/04/19 10:09:25;;;;;;;22.10;21.00;;;14.90;18.20;;;;;;5003258;28;20447;-80
2022/04/19 10:11:51;;;;;;;19.67;18.90;;;15.00;18.30;;;;;;5004931;28;20436;-80
2022/04/19 10:14:21;;;;;;;20.10;19.20;;;15.00;18.30;;;;;;4998466;28;20478;-79
2022/04/19 10:16:50;;;;;;;21.33;19.87;;;15.00;17.70;;;;;;5010284;28;20470;-80
2022/04/19 10:19:17;;;;;;;20.60;19.60;;;15.10;16.70;;;;;;5010788;28;20471;-80
2022/04/19 10:21:45;;;;;;;22.40;21.17;;;15.20;17.20;;;;;;5011110;28;20446;-79
2022/04/19 10:24:13;;;;;;;19.93;19.03;;;15.30;16.90;;;;;;5011972;28;20413;-79
2022/04/19 10:26:50;;;;;;;20.00;19.03;;;15.40;16.80;;;;;;5012075;28;20770;-79
2022/04/19 10:29:18;;;;;;;21.70;20.60;;;15.60;15.10;;;;;;5011904;28;20474;-86
2022/04/19 10:31:55;;;;;;;22.17;21.10;;;15.60;15.10;;;;;;5012027;28;20909;-86
2022/04/19 10:34:26;;;;;;;20.87;19.80;;;15.60;15.20;;;;;;5011080;28;20439;-86
2022/04/19 10:36:54;;;;;;;20.70;19.80;;;15.70;15.30;;;;;;5011015;28;20508;-85
2022/04/19 10:39:22;;;;;;;19.60;18.80;;;15.80;15.30;;;;;;5011096;28;20511;-86
2022/04/19 10:41:58;;;;;;;20.90;19.90;;;15.80;15.90;;;;;;5010825;28;20423;-86
2022/04/19 10:44:38;;;;;;;20.30;19.40;;;15.80;15.30;;;;;;5010658;28;20418;-86
2022/04/19 10:47:11;;;;;;;21.73;20.83;;;16.00;15.60;;;;;;5011019;28;20408;-86
2022/04/19 10:49:49;;;;;;;21.10;20.20;;;16.00;14.80;;;;;;5010924;28;20478;-84
2022/04/19 10:52:39;;;;;;;21.70;20.60;;;15.90;14.90;;;;;;5010633;28;20424;-85
2022/04/19 10:55:18;;;;;;;21.87;20.80;;;16.00;15.20;;;;;;5010560;28;20424;-86
2022/04/19 11:00:34;;;;;;;21.97;20.87;;;16.00;15.40;;;;;;4995976;28;20905;-86
2022/04/19 11:03:11;;;;;;;19.80;18.97;;;16.00;14.80;;;;;;5012547;28;20838;-88
2022/04/19 11:05:52;;;;;;;21.00;20.00;;;16.00;14.50;;;;;;5014521;28;20419;-86
2022/04/19 11:08:29;;;;;;;20.27;19.30;;;15.90;13.80;;;;;;5014380;28;20412;-87
2022/04/19 11:10:58;;;;;;;20.60;19.70;;;16.00;14.70;;;;;;5014729;28;20442;-87
2022/04/19 11:13:29;;;;;;;20.80;19.80;;;16.00;15.30;;;;;;5014326;28;20418;-87
2022/04/19 11:16:05;;;;;;;20.57;19.67;;;16.00;15.20;;;;;;5014494;28;20419;-87
2022/04/19 11:18:31;;;;;;;20.70;19.90;;;16.00;16.20;;;;;;5014453;28;20469;-87
2022/04/19 11:21:03;;;;;;;21.63;20.57;;;16.00;15.80;;;;;;5014591;28;20850;-87
2022/04/19 11:23:40;;;;;;;19.90;19.00;;;16.10;15.60;;;;;;5014380;28;20424;-87
2022/04/19 11:26:08;;;;;;;21.88;20.88;;;16.00;15.30;;;;;;5013968;28;20473;-86
2022/04/19 11:28:34;;;;;;;22.53;21.40;;;15.90;16.00;;;;;;5014685;28;20534;-86
2022/04/19 11:31:00;;;;;;;22.17;21.10;;;15.80;16.10;;;;;;5014814;28;20418;-87
2022/04/19 11:33:33;;;;;;;21.70;20.60;;;15.90;15.20;;;;;;5014301;28;20607;-87
2022/04/19 11:36:10;;;;;;;21.80;20.90;;;15.90;15.70;;;;;;5014298;28;20486;-87
2022/04/19 11:38:48;;;;;;;23.00;21.80;;;16.00;15.70;;;;;;5014506;28;20464;-87
2022/04/19 11:46:53;;;;;;;24.90;22.60;;;16.20;15.50;;;;;;5009323;28;20450;-87
2022/04/19 11:49:26;;;;;;;21.73;20.67;;;16.20;14.80;;;;;;5014367;28;20845;-87
2022/04/19 11:52:06;;;;;;;21.33;20.43;;;16.10;14.60;;;;;;5014224;28;20548;-88
2022/04/19 11:54:33;;;;;;;20.83;19.90;;;16.20;14.60;;;;;;5014503;28;20815;-88
2022/04/19 11:57:03;;;;;;;22.77;21.20;;;16.30;15.10;;;;;;5014485;28;20897;-86
2022/04/19 11:59:40;;;;;;;20.97;20.03;;;16.30;14.90;;;;;;5013967;28;20567;-88
2022/04/19 12:02:17;;;;;;;20.47;19.57;;;16.40;13.20;;;;;;5012415;28;20835;-89
2022/04/19 12:04:51;;;;;;;21.93;20.83;;;16.40;13.40;;;;;;5013794;28;20419;-89
2022/04/19 12:07:17;;;;;;;22.70;21.60;;;16.40;13.80;;;;;;5014460;28;20451;-89
2022/04/19 12:09:44;;;;;;;24.30;22.40;;;16.50;14.00;;;;;;5014059;28;20451;-88
2022/04/19 12:12:10;;;;;;;24.77;21.93;;;16.40;14.00;;;;;;5013213;28;20182;-87
2022/04/19 12:14:36;;;;;;;22.43;21.23;;;16.40;14.60;;;;;;5013614;28;20439;-89
2022/04/19 12:17:06;;;;;;;22.20;21.10;;;16.40;14.40;;;;;;5013940;28;20185;-87
2022/04/19 12:19:40;;;;;;;21.60;20.60;;;16.60;13.40;;;;;;5013616;28;20267;-87
2022/04/19 12:22:22;;;;;;;23.90;22.70;;;16.60;13.40;;;;;;5014350;28;20424;-86
2022/04/19 12:24:55;;;;;;;21.00;19.90;;;16.50;14.20;;;;;;5013889;28;20431;-88
2022/04/19 12:27:32;;;;;;;24.23;22.70;;;16.40;14.50;;;;;;5013928;28;20826;-88
2022/04/19 12:30:11;;;;;;;22.87;21.33;;;16.60;14.30;;;;;;5013331;28;20424;-88
2022/04/19 12:32:54;;;;;;;21.67;20.60;;;16.60;14.60;;;;;;5013746;28;20444;-88
2022/04/19 12:35:34;;;;;;;23.00;21.47;;;16.70;14.00;;;;;;5013204;28;20856;-87
2022/04/19 12:38:13;;;;;;;21.53;20.33;;;16.70;14.20;;;;;;5013488;28;20936;-88
2022/04/19 12:40:46;;;;;;;21.97;20.87;;;16.60;14.00;;;;;;5013650;28;20991;-87
2022/04/19 12:43:14;;;;;;;22.60;21.50;;;16.60;14.20;;;;;;5013527;28;20417;-87
2022/04/19 12:45:41;;;;;;;22.10;21.10;;;16.70;14.10;;;;;;5012503;28;20447;-88
2022/04/19 12:48:23;;;;;;;21.97;20.97;;;16.70;13.70;;;;;;5013424;28;20841;-88
2022/04/19 12:51:03;;;;;;;21.00;20.10;;;16.80;12.80;;;;;;5003479;28;20460;-88
2022/04/19 12:53:28;;;;;;;20.40;19.50;;;16.60;13.90;;;;;;5012985;28;20436;-88
2022/04/19 12:55:54;;;;;;;22.10;21.00;;;16.60;13.10;;;;;;5013102;28;20804;-88
2022/04/19 12:58:20;;;;;;;20.67;19.77;;;16.50;13.80;;;;;;5013433;28;20629;-88
2022/04/19 13:00:45;;;;;;;21.37;20.27;;;16.60;13.10;;;;;;5013452;28;20223;-87
2022/04/19 13:03:11;;;;;;;22.03;20.93;;;16.60;13.70;;;;;;5013405;28;20177;-87
2022/04/19 13:13:49;;;;;;;22.17;20.70;;;16.70;14.00;;;;;;5011201;28;20528;-88
2022/04/19 13:16:15;;;;;;;21.70;20.60;;;16.70;14.90;;;;;;5001473;28;20439;-87
2022/04/19 13:18:40;;;;;;;22.63;21.33;;;16.60;14.40;;;;;;5002862;28;20535;-87
2022/04/19 13:21:07;;;;;;;28.53;20.67;;;16.50;14.30;;;;;;5003254;28;20185;-87
2022/04/19 13:23:32;;;;;;;21.67;20.57;;;16.60;14.20;;;;;;5006983;28;20532;-88